sensor_id;sensor_type;location;lat;lon;timestamp;P1;durP1;ratioP1;P2;durP2;ratioP2
13061;SDS011;6597;52.218;9.882;2022-09-30T00:02:15;5.27;;;3.00;;
13061;SDS011;6597;52.218;9.882;2022-09-30T00:04:41;3.90;;;2.63;;
13061;SDS011;6597;52.218;9.882;2022-09-30T00:07:08;4.37;;;3.03;;
13061;SDS011;6597;52.218;9.882;2022-09-30T00:09:34;4.50;;;2.90;;
13061;SDS011;6597;52.218;9.882;2022-09-30T00:12:02;4.13;;;2.80;;
13061;SDS011;6597;52.218;9.882;2022-09-30T00:14:29;5.37;;;2.90;;
13061;SDS011;6597;52.218;9.882;2022-09-30T00:16:55;4.60;;;3.23;;
13061;SDS011;6597;52.218;9.882;2022-09-30T00:19:22;4.17;;;3.27;;
13061;SDS011;6597;52.218;9.882;2022-09-30T00:21:48;4.27;;;3.23;;
13061;SDS011;6597;52.218;9.882;2022-09-30T00:24:15;4.27;;;3.30;;
13061;SDS011;6597;52.218;9.882;2022-09-30T00:26:41;3.50;;;3.07;;
13061;SDS011;6597;52.218;9.882;2022-09-30T00:29:09;4.50;;;3.07;;
13061;SDS011;6597;52.218;9.882;2022-09-30T00:31:36;4.10;;;3.40;;
13061;SDS011;6597;52.218;9.882;2022-09-30T00:34:03;4.07;;;3.27;;
13061;SDS011;6597;52.218;9.882;2022-09-30T00:36:33;3.93;;;3.33;;
13061;SDS011;6597;52.218;9.882;2022-09-30T00:39:01;5.57;;;3.67;;
13061;SDS011;6597;52.218;9.882;2022-09-30T00:41:29;8.07;;;3.30;;
13061;SDS011;6597;52.218;9.882;2022-09-30T00:43:57;4.43;;;3.33;;
13061;SDS011;6597;52.218;9.882;2022-09-30T00:46:26;7.17;;;3.03;;
13061;SDS011;6597;52.218;9.882;2022-09-30T00:48:58;4.50;;;3.37;;
13061;SDS011;6597;52.218;9.882;2022-09-30T00:51:30;3.37;;;3.07;;
13061;SDS011;6597;52.218;9.882;2022-09-30T00:54:00;4.27;;;3.30;;
13061;SDS011;6597;52.218;9.882;2022-09-30T00:56:30;4.10;;;3.30;;
13061;SDS011;6597;52.218;9.882;2022-09-30T00:59:02;4.37;;;3.57;;
13061;SDS011;6597;52.218;9.882;2022-09-30T01:01:35;4.20;;;3.53;;
13061;SDS011;6597;52.218;9.882;2022-09-30T01:04:05;5.73;;;3.70;;
13061;SDS011;6597;52.218;9.882;2022-09-30T01:06:37;6.50;;;3.37;;
13061;SDS011;6597;52.218;9.882;2022-09-30T01:09:03;6.80;;;3.43;;
13061;SDS011;6597;52.218;9.882;2022-09-30T01:11:30;4.23;;;3.30;;
13061;SDS011;6597;52.218;9.882;2022-09-30T01:13:58;4.63;;;3.67;;
13061;SDS011;6597;52.218;9.882;2022-09-30T01:16:51;4.80;;;3.27;;
13061;SDS011;6597;52.218;9.882;2022-09-30T01:19:34;3.97;;;2.93;;
13061;SDS011;6597;52.218;9.882;2022-09-30T01:22:20;3.30;;;3.00;;
13061;SDS011;6597;52.218;9.882;2022-09-30T01:25:04;5.67;;;3.33;;
13061;SDS011;6597;52.218;9.882;2022-09-30T01:28:04;5.43;;;3.33;;
13061;SDS011;6597;52.218;9.882;2022-09-30T01:31:00;3.70;;;3.17;;
13061;SDS011;6597;52.218;9.882;2022-09-30T01:33:44;4.33;;;3.13;;
13061;SDS011;6597;52.218;9.882;2022-09-30T01:36:24;4.23;;;3.03;;
13061;SDS011;6597;52.218;9.882;2022-09-30T01:39:11;4.70;;;3.43;;
13061;SDS011;6597;52.218;9.882;2022-09-30T01:41:51;4.33;;;3.00;;
13061;SDS011;6597;52.218;9.882;2022-09-30T01:44:26;4.23;;;3.03;;
13061;SDS011;6597;52.218;9.882;2022-09-30T01:47:03;4.20;;;3.30;;
13061;SDS011;6597;52.218;9.882;2022-09-30T01:49:38;4.37;;;3.20;;
13061;SDS011;6597;52.218;9.882;2022-09-30T01:52:10;4.83;;;3.17;;
13061;SDS011;6597;52.218;9.882;2022-09-30T01:54:42;5.63;;;3.90;;
13061;SDS011;6597;52.218;9.882;2022-09-30T01:57:15;3.93;;;3.20;;
13061;SDS011;6597;52.218;9.882;2022-09-30T01:59:45;7.77;;;3.60;;
13061;SDS011;6597;52.218;9.882;2022-09-30T02:02:19;6.03;;;3.50;;
13061;SDS011;6597;52.218;9.882;2022-09-30T02:04:50;5.33;;;3.47;;
13061;SDS011;6597;52.218;9.882;2022-09-30T02:07:22;3.53;;;3.23;;
13061;SDS011;6597;52.218;9.882;2022-09-30T02:09:53;4.40;;;3.40;;
13061;SDS011;6597;52.218;9.882;2022-09-30T02:12:25;4.93;;;3.77;;
13061;SDS011;6597;52.218;9.882;2022-09-30T02:14:58;6.00;;;3.70;;
13061;SDS011;6597;52.218;9.882;2022-09-30T02:17:30;4.50;;;3.30;;
13061;SDS011;6597;52.218;9.882;2022-09-30T02:20:02;4.23;;;3.27;;
13061;SDS011;6597;52.218;9.882;2022-09-30T02:22:32;5.93;;;3.53;;
13061;SDS011;6597;52.218;9.882;2022-09-30T02:25:06;4.03;;;3.10;;
13061;SDS011;6597;52.218;9.882;2022-09-30T02:27:40;4.10;;;3.20;;
13061;SDS011;6597;52.218;9.882;2022-09-30T02:30:12;5.63;;;3.57;;
13061;SDS011;6597;52.218;9.882;2022-09-30T02:32:41;7.97;;;3.07;;
13061;SDS011;6597;52.218;9.882;2022-09-30T02:35:13;8.20;;;3.67;;
13061;SDS011;6597;52.218;9.882;2022-09-30T02:37:47;5.50;;;3.13;;
13061;SDS011;6597;52.218;9.882;2022-09-30T02:40:19;4.63;;;3.17;;
13061;SDS011;6597;52.218;9.882;2022-09-30T02:42:50;5.33;;;3.57;;
13061;SDS011;6597;52.218;9.882;2022-09-30T02:45:18;4.47;;;3.50;;
13061;SDS011;6597;52.218;9.882;2022-09-30T02:48:01;4.33;;;3.53;;
13061;SDS011;6597;52.218;9.882;2022-09-30T02:50:39;3.93;;;3.13;;
13061;SDS011;6597;52.218;9.882;2022-09-30T02:53:20;3.27;;;2.70;;
13061;SDS011;6597;52.218;9.882;2022-09-30T02:56:00;5.20;;;3.47;;
13061;SDS011;6597;52.218;9.882;2022-09-30T02:58:37;4.37;;;3.33;;
13061;SDS011;6597;52.218;9.882;2022-09-30T03:01:05;5.23;;;3.53;;
13061;SDS011;6597;52.218;9.882;2022-09-30T03:03:36;4.47;;;3.40;;
13061;SDS011;6597;52.218;9.882;2022-09-30T03:06:05;5.27;;;3.50;;
13061;SDS011;6597;52.218;9.882;2022-09-30T03:08:32;5.17;;;3.77;;
13061;SDS011;6597;52.218;9.882;2022-09-30T03:10:59;5.50;;;3.80;;
13061;SDS011;6597;52.218;9.882;2022-09-30T03:13:31;5.03;;;3.97;;
13061;SDS011;6597;52.218;9.882;2022-09-30T03:16:21;5.50;;;3.30;;
13061;SDS011;6597;52.218;9.882;2022-09-30T03:19:05;10.10;;;3.87;;
13061;SDS011;6597;52.218;9.882;2022-09-30T03:21:50;5.80;;;3.37;;
13061;SDS011;6597;52.218;9.882;2022-09-30T03:24:33;8.77;;;4.30;;
13061;SDS011;6597;52.218;9.882;2022-09-30T03:27:21;4.40;;;3.40;;
13061;SDS011;6597;52.218;9.882;2022-09-30T03:29:58;6.00;;;4.00;;
13061;SDS011;6597;52.218;9.882;2022-09-30T03:32:31;6.17;;;4.13;;
13061;SDS011;6597;52.218;9.882;2022-09-30T03:35:14;6.17;;;4.13;;
13061;SDS011;6597;52.218;9.882;2022-09-30T03:37:46;6.27;;;3.97;;
13061;SDS011;6597;52.218;9.882;2022-09-30T03:40:24;7.73;;;4.23;;
13061;SDS011;6597;52.218;9.882;2022-09-30T03:42:57;7.20;;;3.90;;
13061;SDS011;6597;52.218;9.882;2022-09-30T03:45:29;5.63;;;4.33;;
13061;SDS011;6597;52.218;9.882;2022-09-30T03:48:00;6.87;;;4.20;;
13061;SDS011;6597;52.218;9.882;2022-09-30T03:50:31;8.43;;;4.53;;
13061;SDS011;6597;52.218;9.882;2022-09-30T03:53:00;8.87;;;5.30;;
13061;SDS011;6597;52.218;9.882;2022-09-30T03:55:28;6.27;;;4.63;;
13061;SDS011;6597;52.218;9.882;2022-09-30T03:57:55;7.23;;;5.10;;
13061;SDS011;6597;52.218;9.882;2022-09-30T04:00:22;8.07;;;4.93;;
13061;SDS011;6597;52.218;9.882;2022-09-30T04:02:49;6.70;;;5.00;;
13061;SDS011;6597;52.218;9.882;2022-09-30T04:05:15;8.93;;;5.33;;
13061;SDS011;6597;52.218;9.882;2022-09-30T04:07:43;8.27;;;5.07;;
13061;SDS011;6597;52.218;9.882;2022-09-30T04:10:11;8.20;;;5.37;;
13061;SDS011;6597;52.218;9.882;2022-09-30T04:12:37;6.17;;;4.33;;
13061;SDS011;6597;52.218;9.882;2022-09-30T04:15:04;9.13;;;5.00;;
13061;SDS011;6597;52.218;9.882;2022-09-30T04:17:31;10.43;;;5.00;;
13061;SDS011;6597;52.218;9.882;2022-09-30T04:19:57;8.83;;;4.87;;
13061;SDS011;6597;52.218;9.882;2022-09-30T04:22:24;6.33;;;4.63;;
13061;SDS011;6597;52.218;9.882;2022-09-30T04:24:52;6.93;;;4.60;;
13061;SDS011;6597;52.218;9.882;2022-09-30T04:27:18;5.50;;;3.80;;
13061;SDS011;6597;52.218;9.882;2022-09-30T04:29:45;7.90;;;4.77;;
13061;SDS011;6597;52.218;9.882;2022-09-30T04:32:11;7.77;;;4.90;;
13061;SDS011;6597;52.218;9.882;2022-09-30T04:34:38;5.80;;;4.20;;
13061;SDS011;6597;52.218;9.882;2022-09-30T04:37:04;6.43;;;4.57;;
13061;SDS011;6597;52.218;9.882;2022-09-30T04:39:31;7.40;;;4.30;;
13061;SDS011;6597;52.218;9.882;2022-09-30T04:41:59;7.87;;;4.80;;
13061;SDS011;6597;52.218;9.882;2022-09-30T04:44:25;11.47;;;4.87;;
13061;SDS011;6597;52.218;9.882;2022-09-30T04:46:52;8.40;;;5.20;;
13061;SDS011;6597;52.218;9.882;2022-09-30T04:49:18;5.77;;;4.27;;
13061;SDS011;6597;52.218;9.882;2022-09-30T04:51:45;12.90;;;4.90;;
13061;SDS011;6597;52.218;9.882;2022-09-30T04:54:12;6.40;;;4.83;;
13061;SDS011;6597;52.218;9.882;2022-09-30T04:56:40;7.60;;;4.83;;
13061;SDS011;6597;52.218;9.882;2022-09-30T04:59:08;9.50;;;5.13;;
13061;SDS011;6597;52.218;9.882;2022-09-30T05:01:35;8.20;;;4.70;;
13061;SDS011;6597;52.218;9.882;2022-09-30T05:04:01;9.70;;;5.30;;
13061;SDS011;6597;52.218;9.882;2022-09-30T05:06:28;5.83;;;4.80;;
13061;SDS011;6597;52.218;9.882;2022-09-30T05:08:55;8.43;;;5.47;;
13061;SDS011;6597;52.218;9.882;2022-09-30T05:11:21;6.50;;;4.67;;
13061;SDS011;6597;52.218;9.882;2022-09-30T05:13:48;6.97;;;4.73;;
13061;SDS011;6597;52.218;9.882;2022-09-30T05:16:16;7.40;;;4.90;;
13061;SDS011;6597;52.218;9.882;2022-09-30T05:18:43;7.80;;;5.23;;
13061;SDS011;6597;52.218;9.882;2022-09-30T05:21:11;6.63;;;5.23;;
13061;SDS011;6597;52.218;9.882;2022-09-30T05:23:38;7.43;;;5.00;;
13061;SDS011;6597;52.218;9.882;2022-09-30T05:26:05;8.03;;;5.23;;
13061;SDS011;6597;52.218;9.882;2022-09-30T05:28:31;8.00;;;5.03;;
13061;SDS011;6597;52.218;9.882;2022-09-30T05:30:58;7.43;;;4.90;;
13061;SDS011;6597;52.218;9.882;2022-09-30T05:33:28;8.17;;;5.03;;
13061;SDS011;6597;52.218;9.882;2022-09-30T05:35:57;7.20;;;4.97;;
13061;SDS011;6597;52.218;9.882;2022-09-30T05:38:24;8.57;;;5.00;;
13061;SDS011;6597;52.218;9.882;2022-09-30T05:40:51;9.43;;;5.43;;
13061;SDS011;6597;52.218;9.882;2022-09-30T05:43:18;6.40;;;4.93;;
13061;SDS011;6597;52.218;9.882;2022-09-30T05:45:50;8.40;;;4.90;;
13061;SDS011;6597;52.218;9.882;2022-09-30T05:48:17;7.63;;;4.67;;
13061;SDS011;6597;52.218;9.882;2022-09-30T05:50:45;7.93;;;4.90;;
13061;SDS011;6597;52.218;9.882;2022-09-30T05:53:17;10.40;;;5.60;;
13061;SDS011;6597;52.218;9.882;2022-09-30T05:55:46;7.90;;;5.07;;
13061;SDS011;6597;52.218;9.882;2022-09-30T05:58:14;8.73;;;5.40;;
13061;SDS011;6597;52.218;9.882;2022-09-30T06:00:42;9.70;;;4.50;;
13061;SDS011;6597;52.218;9.882;2022-09-30T06:03:10;6.37;;;4.67;;
13061;SDS011;6597;52.218;9.882;2022-09-30T06:05:38;7.97;;;4.97;;
13061;SDS011;6597;52.218;9.882;2022-09-30T06:08:06;7.90;;;5.17;;
13061;SDS011;6597;52.218;9.882;2022-09-30T06:10:34;6.57;;;4.60;;
13061;SDS011;6597;52.218;9.882;2022-09-30T06:13:01;8.40;;;5.37;;
13061;SDS011;6597;52.218;9.882;2022-09-30T06:15:28;10.63;;;5.40;;
13061;SDS011;6597;52.218;9.882;2022-09-30T06:17:55;7.37;;;5.43;;
13061;SDS011;6597;52.218;9.882;2022-09-30T06:20:22;8.43;;;5.87;;
13061;SDS011;6597;52.218;9.882;2022-09-30T06:22:49;9.30;;;5.57;;
13061;SDS011;6597;52.218;9.882;2022-09-30T06:25:17;9.20;;;6.10;;
13061;SDS011;6597;52.218;9.882;2022-09-30T06:27:44;8.53;;;6.20;;
13061;SDS011;6597;52.218;9.882;2022-09-30T06:30:11;10.03;;;6.87;;
13061;SDS011;6597;52.218;9.882;2022-09-30T06:32:38;14.43;;;6.37;;
13061;SDS011;6597;52.218;9.882;2022-09-30T06:35:05;13.00;;;5.70;;
13061;SDS011;6597;52.218;9.882;2022-09-30T06:37:31;10.37;;;6.73;;
13061;SDS011;6597;52.218;9.882;2022-09-30T06:40:01;9.67;;;6.30;;
13061;SDS011;6597;52.218;9.882;2022-09-30T06:42:29;9.20;;;6.23;;
13061;SDS011;6597;52.218;9.882;2022-09-30T06:44:56;9.57;;;7.00;;
13061;SDS011;6597;52.218;9.882;2022-09-30T06:47:22;9.07;;;6.43;;
13061;SDS011;6597;52.218;9.882;2022-09-30T06:49:49;11.03;;;6.40;;
13061;SDS011;6597;52.218;9.882;2022-09-30T06:52:18;9.57;;;6.80;;
13061;SDS011;6597;52.218;9.882;2022-09-30T06:54:45;9.77;;;6.67;;
13061;SDS011;6597;52.218;9.882;2022-09-30T06:57:13;10.17;;;6.83;;
13061;SDS011;6597;52.218;9.882;2022-09-30T06:59:42;12.27;;;6.67;;
13061;SDS011;6597;52.218;9.882;2022-09-30T07:02:10;10.57;;;6.73;;
13061;SDS011;6597;52.218;9.882;2022-09-30T07:04:37;18.57;;;8.80;;
13061;SDS011;6597;52.218;9.882;2022-09-30T07:07:03;15.73;;;9.43;;
13061;SDS011;6597;52.218;9.882;2022-09-30T07:09:31;15.40;;;10.23;;
13061;SDS011;6597;52.218;9.882;2022-09-30T07:11:57;18.47;;;11.20;;
13061;SDS011;6597;52.218;9.882;2022-09-30T07:14:24;19.60;;;11.20;;
13061;SDS011;6597;52.218;9.882;2022-09-30T07:16:52;19.60;;;11.23;;
13061;SDS011;6597;52.218;9.882;2022-09-30T07:19:18;16.80;;;10.40;;
13061;SDS011;6597;52.218;9.882;2022-09-30T07:21:46;10.43;;;7.77;;
13061;SDS011;6597;52.218;9.882;2022-09-30T07:24:13;9.90;;;6.73;;
13061;SDS011;6597;52.218;9.882;2022-09-30T07:26:40;14.00;;;6.13;;
13061;SDS011;6597;52.218;9.882;2022-09-30T07:29:09;6.00;;;5.10;;
13061;SDS011;6597;52.218;9.882;2022-09-30T07:31:35;7.00;;;4.93;;
13061;SDS011;6597;52.218;9.882;2022-09-30T07:34:04;7.37;;;4.83;;
13061;SDS011;6597;52.218;9.882;2022-09-30T07:36:32;6.57;;;4.60;;
13061;SDS011;6597;52.218;9.882;2022-09-30T07:39:00;6.37;;;4.37;;
13061;SDS011;6597;52.218;9.882;2022-09-30T07:41:30;6.53;;;4.87;;
13061;SDS011;6597;52.218;9.882;2022-09-30T07:43:57;6.43;;;4.90;;
13061;SDS011;6597;52.218;9.882;2022-09-30T07:46:24;6.23;;;4.57;;
13061;SDS011;6597;52.218;9.882;2022-09-30T07:48:53;5.03;;;4.23;;
13061;SDS011;6597;52.218;9.882;2022-09-30T07:51:23;6.20;;;4.40;;
13061;SDS011;6597;52.218;9.882;2022-09-30T07:53:52;6.97;;;4.67;;
13061;SDS011;6597;52.218;9.882;2022-09-30T07:56:20;5.53;;;4.37;;
13061;SDS011;6597;52.218;9.882;2022-09-30T07:58:47;5.73;;;4.57;;
13061;SDS011;6597;52.218;9.882;2022-09-30T08:01:18;8.03;;;5.17;;
13061;SDS011;6597;52.218;9.882;2022-09-30T08:03:44;6.63;;;4.37;;
13061;SDS011;6597;52.218;9.882;2022-09-30T08:06:12;5.97;;;4.27;;
13061;SDS011;6597;52.218;9.882;2022-09-30T08:08:41;6.77;;;4.60;;
13061;SDS011;6597;52.218;9.882;2022-09-30T08:11:09;8.37;;;4.60;;
13061;SDS011;6597;52.218;9.882;2022-09-30T08:13:36;7.43;;;4.27;;
13061;SDS011;6597;52.218;9.882;2022-09-30T08:16:03;5.37;;;3.73;;
13061;SDS011;6597;52.218;9.882;2022-09-30T08:18:30;5.47;;;4.30;;
13061;SDS011;6597;52.218;9.882;2022-09-30T08:21:00;9.40;;;4.90;;
13061;SDS011;6597;52.218;9.882;2022-09-30T08:23:28;6.47;;;4.28;;
13061;SDS011;6597;52.218;9.882;2022-09-30T08:26:00;8.20;;;4.83;;
13061;SDS011;6597;52.218;9.882;2022-09-30T08:28:27;6.22;;;4.22;;
13061;SDS011;6597;52.218;9.882;2022-09-30T08:30:55;5.85;;;4.68;;
13061;SDS011;6597;52.218;9.882;2022-09-30T08:33:27;5.35;;;4.13;;
13061;SDS011;6597;52.218;9.882;2022-09-30T08:35:54;6.03;;;4.45;;
13061;SDS011;6597;52.218;9.882;2022-09-30T08:38:20;8.82;;;4.43;;
13061;SDS011;6597;52.218;9.882;2022-09-30T08:40:49;5.88;;;3.97;;
13061;SDS011;6597;52.218;9.882;2022-09-30T08:43:25;9.82;;;4.00;;
13061;SDS011;6597;52.218;9.882;2022-09-30T08:45:58;6.25;;;4.43;;
13061;SDS011;6597;52.218;9.882;2022-09-30T08:48:38;7.60;;;5.10;;
13061;SDS011;6597;52.218;9.882;2022-09-30T08:51:17;7.15;;;5.13;;
13061;SDS011;6597;52.218;9.882;2022-09-30T08:53:55;5.70;;;4.38;;
13061;SDS011;6597;52.218;9.882;2022-09-30T08:56:24;6.75;;;5.10;;
13061;SDS011;6597;52.218;9.882;2022-09-30T08:58:57;5.63;;;4.50;;
13061;SDS011;6597;52.218;9.882;2022-09-30T09:01:28;6.55;;;4.45;;
13061;SDS011;6597;52.218;9.882;2022-09-30T09:03:58;6.97;;;4.65;;
13061;SDS011;6597;52.218;9.882;2022-09-30T09:06:27;7.53;;;4.88;;
13061;SDS011;6597;52.218;9.882;2022-09-30T09:09:01;5.70;;;4.50;;
13061;SDS011;6597;52.218;9.882;2022-09-30T09:11:39;5.43;;;4.57;;
13061;SDS011;6597;52.218;9.882;2022-09-30T09:14:21;9.45;;;5.20;;
13061;SDS011;6597;52.218;9.882;2022-09-30T09:17:00;6.60;;;4.25;;
13061;SDS011;6597;52.218;9.882;2022-09-30T09:19:35;5.43;;;4.32;;
13061;SDS011;6597;52.218;9.882;2022-09-30T09:22:06;8.27;;;4.65;;
13061;SDS011;6597;52.218;9.882;2022-09-30T09:24:36;6.07;;;4.65;;
13061;SDS011;6597;52.218;9.882;2022-09-30T09:27:17;6.25;;;4.43;;
13061;SDS011;6597;52.218;9.882;2022-09-30T09:29:48;5.82;;;4.55;;
13061;SDS011;6597;52.218;9.882;2022-09-30T09:32:26;5.20;;;4.30;;
13061;SDS011;6597;52.218;9.882;2022-09-30T09:34:55;7.65;;;4.70;;
13061;SDS011;6597;52.218;9.882;2022-09-30T09:37:26;5.20;;;4.05;;
13061;SDS011;6597;52.218;9.882;2022-09-30T09:40:19;10.60;;;4.80;;
13061;SDS011;6597;52.218;9.882;2022-09-30T09:42:55;8.13;;;4.13;;
13061;SDS011;6597;52.218;9.882;2022-09-30T09:45:29;6.05;;;4.30;;
13061;SDS011;6597;52.218;9.882;2022-09-30T09:48:01;7.38;;;4.20;;
13061;SDS011;6597;52.218;9.882;2022-09-30T09:50:35;9.95;;;5.10;;
13061;SDS011;6597;52.218;9.882;2022-09-30T09:53:19;7.53;;;4.22;;
13061;SDS011;6597;52.218;9.882;2022-09-30T09:56:04;7.03;;;4.53;;
13061;SDS011;6597;52.218;9.882;2022-09-30T10:01:32;5.93;;;4.38;;
13061;SDS011;6597;52.218;9.882;2022-09-30T10:04:11;11.48;;;4.60;;
13061;SDS011;6597;52.218;9.882;2022-09-30T10:06:43;7.05;;;5.28;;
13061;SDS011;6597;52.218;9.882;2022-09-30T10:09:22;7.30;;;5.32;;
13061;SDS011;6597;52.218;9.882;2022-09-30T10:14:56;6.38;;;4.82;;
13061;SDS011;6597;52.218;9.882;2022-09-30T10:17:27;6.35;;;4.50;;
13061;SDS011;6597;52.218;9.882;2022-09-30T10:20:03;6.32;;;4.35;;
13061;SDS011;6597;52.218;9.882;2022-09-30T10:22:34;8.35;;;4.72;;
13061;SDS011;6597;52.218;9.882;2022-09-30T10:25:08;8.63;;;4.30;;
13061;SDS011;6597;52.218;9.882;2022-09-30T10:27:45;7.72;;;3.90;;
13061;SDS011;6597;52.218;9.882;2022-09-30T10:30:21;6.10;;;4.13;;
13061;SDS011;6597;52.218;9.882;2022-09-30T10:32:57;6.90;;;4.20;;
13061;SDS011;6597;52.218;9.882;2022-09-30T10:35:27;6.38;;;4.53;;
13061;SDS011;6597;52.218;9.882;2022-09-30T10:37:54;5.00;;;3.67;;
13061;SDS011;6597;52.218;9.882;2022-09-30T10:40:26;4.70;;;3.63;;
13061;SDS011;6597;52.218;9.882;2022-09-30T10:42:55;7.05;;;3.65;;
13061;SDS011;6597;52.218;9.882;2022-09-30T10:45:23;4.20;;;3.50;;
13061;SDS011;6597;52.218;9.882;2022-09-30T10:47:59;5.47;;;4.10;;
13061;SDS011;6597;52.218;9.882;2022-09-30T10:50:32;5.78;;;4.05;;
13061;SDS011;6597;52.218;9.882;2022-09-30T10:53:00;5.63;;;3.90;;
13061;SDS011;6597;52.218;9.882;2022-09-30T10:55:30;5.82;;;3.83;;
13061;SDS011;6597;52.218;9.882;2022-09-30T10:58:00;5.88;;;4.03;;
13061;SDS011;6597;52.218;9.882;2022-09-30T11:00:45;5.60;;;4.40;;
13061;SDS011;6597;52.218;9.882;2022-09-30T11:03:16;6.72;;;4.40;;
13061;SDS011;6597;52.218;9.882;2022-09-30T11:05:48;7.20;;;4.18;;
13061;SDS011;6597;52.218;9.882;2022-09-30T11:08:16;8.77;;;5.07;;
13061;SDS011;6597;52.218;9.882;2022-09-30T11:10:48;8.18;;;5.07;;
13061;SDS011;6597;52.218;9.882;2022-09-30T11:13:22;7.13;;;4.93;;
13061;SDS011;6597;52.218;9.882;2022-09-30T11:16:00;7.82;;;5.22;;
13061;SDS011;6597;52.218;9.882;2022-09-30T11:18:34;7.40;;;5.10;;
13061;SDS011;6597;52.218;9.882;2022-09-30T11:21:08;7.50;;;5.43;;
13061;SDS011;6597;52.218;9.882;2022-09-30T11:23:41;7.97;;;5.50;;
13061;SDS011;6597;52.218;9.882;2022-09-30T11:26:11;10.65;;;5.78;;
13061;SDS011;6597;52.218;9.882;2022-09-30T11:28:50;10.27;;;5.57;;
13061;SDS011;6597;52.218;9.882;2022-09-30T11:31:29;8.15;;;6.18;;
13061;SDS011;6597;52.218;9.882;2022-09-30T11:34:10;8.82;;;5.70;;
13061;SDS011;6597;52.218;9.882;2022-09-30T11:36:52;8.85;;;6.50;;
13061;SDS011;6597;52.218;9.882;2022-09-30T11:39:30;10.05;;;6.88;;
13061;SDS011;6597;52.218;9.882;2022-09-30T11:42:14;10.18;;;7.40;;
13061;SDS011;6597;52.218;9.882;2022-09-30T11:44:50;10.00;;;6.68;;
13061;SDS011;6597;52.218;9.882;2022-09-30T11:47:29;8.85;;;6.47;;
13061;SDS011;6597;52.218;9.882;2022-09-30T11:50:16;14.73;;;7.88;;
13061;SDS011;6597;52.218;9.882;2022-09-30T11:52:53;9.13;;;6.97;;
13061;SDS011;6597;52.218;9.882;2022-09-30T11:55:33;8.95;;;6.78;;
13061;SDS011;6597;52.218;9.882;2022-09-30T11:58:11;12.00;;;7.63;;
13061;SDS011;6597;52.218;9.882;2022-09-30T12:00:43;13.32;;;7.70;;
13061;SDS011;6597;52.218;9.882;2022-09-30T12:03:14;10.68;;;7.15;;
13061;SDS011;6597;52.218;9.882;2022-09-30T12:05:50;6.90;;;4.70;;
13061;SDS011;6597;52.218;9.882;2022-09-30T12:08:21;7.82;;;5.38;;
13061;SDS011;6597;52.218;9.882;2022-09-30T12:10:53;8.13;;;5.80;;
13061;SDS011;6597;52.218;9.882;2022-09-30T12:13:23;9.48;;;5.35;;
13061;SDS011;6597;52.218;9.882;2022-09-30T12:15:51;6.43;;;4.00;;
13061;SDS011;6597;52.218;9.882;2022-09-30T12:18:21;4.22;;;3.40;;
13061;SDS011;6597;52.218;9.882;2022-09-30T12:20:54;7.88;;;4.15;;
13061;SDS011;6597;52.218;9.882;2022-09-30T12:23:25;7.22;;;3.88;;
13061;SDS011;6597;52.218;9.882;2022-09-30T12:25:56;6.13;;;3.63;;
13061;SDS011;6597;52.218;9.882;2022-09-30T12:28:26;7.18;;;3.22;;
13061;SDS011;6597;52.218;9.882;2022-09-30T12:31:20;7.68;;;3.08;;
13061;SDS011;6597;52.218;9.882;2022-09-30T12:34:07;5.45;;;3.33;;
13061;SDS011;6597;52.218;9.882;2022-09-30T12:36:51;6.10;;;2.53;;
13061;SDS011;6597;52.218;9.882;2022-09-30T12:42:50;5.07;;;2.55;;
13061;SDS011;6597;52.218;9.882;2022-09-30T12:48:31;3.80;;;2.08;;
13061;SDS011;6597;52.218;9.882;2022-09-30T12:51:03;5.57;;;2.10;;
13061;SDS011;6597;52.218;9.882;2022-09-30T12:53:32;3.33;;;2.10;;
13061;SDS011;6597;52.218;9.882;2022-09-30T12:56:02;5.65;;;2.13;;
13061;SDS011;6597;52.218;9.882;2022-09-30T12:58:31;4.90;;;2.30;;
13061;SDS011;6597;52.218;9.882;2022-09-30T13:01:02;2.75;;;1.83;;
13061;SDS011;6597;52.218;9.882;2022-09-30T13:03:45;2.45;;;2.15;;
13061;SDS011;6597;52.218;9.882;2022-09-30T13:06:15;3.28;;;2.20;;
13061;SDS011;6597;52.218;9.882;2022-09-30T13:08:48;2.28;;;2.00;;
13061;SDS011;6597;52.218;9.882;2022-09-30T13:11:34;3.17;;;2.20;;
13061;SDS011;6597;52.218;9.882;2022-09-30T13:14:21;4.55;;;2.10;;
13061;SDS011;6597;52.218;9.882;2022-09-30T13:19:50;4.18;;;1.92;;
13061;SDS011;6597;52.218;9.882;2022-09-30T13:25:22;2.67;;;1.50;;
13061;SDS011;6597;52.218;9.882;2022-09-30T13:27:50;2.20;;;1.77;;
13061;SDS011;6597;52.218;9.882;2022-09-30T13:30:35;2.95;;;1.70;;
13061;SDS011;6597;52.218;9.882;2022-09-30T13:35:56;4.10;;;1.65;;
13061;SDS011;6597;52.218;9.882;2022-09-30T13:38:35;3.05;;;1.60;;
13061;SDS011;6597;52.218;9.882;2022-09-30T13:41:06;2.92;;;2.00;;
13061;SDS011;6597;52.218;9.882;2022-09-30T13:43:42;2.88;;;2.17;;
13061;SDS011;6597;52.218;9.882;2022-09-30T13:46:16;3.90;;;2.05;;
13061;SDS011;6597;52.218;9.882;2022-09-30T13:48:50;4.03;;;2.97;;
13061;SDS011;6597;52.218;9.882;2022-09-30T13:51:21;3.72;;;1.98;;
13061;SDS011;6597;52.218;9.882;2022-09-30T13:53:51;2.22;;;2.00;;
13061;SDS011;6597;52.218;9.882;2022-09-30T13:56:22;4.97;;;1.80;;
13061;SDS011;6597;52.218;9.882;2022-09-30T13:59:01;1.73;;;1.60;;
13061;SDS011;6597;52.218;9.882;2022-09-30T14:01:45;6.80;;;1.80;;
13061;SDS011;6597;52.218;9.882;2022-09-30T14:07:35;2.53;;;1.80;;
13061;SDS011;6597;52.218;9.882;2022-09-30T14:10:15;3.60;;;1.70;;
13061;SDS011;6597;52.218;9.882;2022-09-30T14:13:00;1.98;;;1.77;;
13061;SDS011;6597;52.218;9.882;2022-09-30T14:15:54;6.53;;;1.77;;
13061;SDS011;6597;52.218;9.882;2022-09-30T14:18:45;1.95;;;1.75;;
13061;SDS011;6597;52.218;9.882;2022-09-30T14:21:29;4.85;;;1.95;;
13061;SDS011;6597;52.218;9.882;2022-09-30T14:24:02;3.75;;;2.55;;
13061;SDS011;6597;52.218;9.882;2022-09-30T14:26:38;3.95;;;2.00;;
13061;SDS011;6597;52.218;9.882;2022-09-30T14:29:25;4.22;;;1.83;;
13061;SDS011;6597;52.218;9.882;2022-09-30T14:32:07;3.08;;;1.90;;
13061;SDS011;6597;52.218;9.882;2022-09-30T14:34:36;3.33;;;1.83;;
13061;SDS011;6597;52.218;9.882;2022-09-30T14:37:03;5.22;;;2.33;;
13061;SDS011;6597;52.218;9.882;2022-09-30T14:39:31;2.47;;;2.08;;
13061;SDS011;6597;52.218;9.882;2022-09-30T14:41:58;1.67;;;1.27;;
13061;SDS011;6597;52.218;9.882;2022-09-30T14:44:28;3.40;;;1.95;;
13061;SDS011;6597;52.218;9.882;2022-09-30T14:47:00;4.82;;;2.25;;
13061;SDS011;6597;52.218;9.882;2022-09-30T14:49:31;3.63;;;2.38;;
13061;SDS011;6597;52.218;9.882;2022-09-30T14:52:01;3.30;;;2.22;;
13061;SDS011;6597;52.218;9.882;2022-09-30T14:54:29;2.38;;;2.00;;
13061;SDS011;6597;52.218;9.882;2022-09-30T14:56:58;5.78;;;2.10;;
13061;SDS011;6597;52.218;9.882;2022-09-30T14:59:28;2.95;;;2.13;;
13061;SDS011;6597;52.218;9.882;2022-09-30T15:01:57;2.72;;;1.60;;
13061;SDS011;6597;52.218;9.882;2022-09-30T15:04:26;2.03;;;1.80;;
13061;SDS011;6597;52.218;9.882;2022-09-30T15:06:55;3.35;;;1.75;;
13061;SDS011;6597;52.218;9.882;2022-09-30T15:09:26;2.05;;;1.85;;
13061;SDS011;6597;52.218;9.882;2022-09-30T15:11:55;2.75;;;2.10;;
13061;SDS011;6597;52.218;9.882;2022-09-30T15:14:23;2.97;;;2.20;;
13061;SDS011;6597;52.218;9.882;2022-09-30T15:16:51;3.75;;;2.13;;
13061;SDS011;6597;52.218;9.882;2022-09-30T15:19:19;4.05;;;1.90;;
13061;SDS011;6597;52.218;9.882;2022-09-30T15:21:48;1.85;;;1.67;;
13061;SDS011;6597;52.218;9.882;2022-09-30T15:24:16;3.38;;;2.05;;
13061;SDS011;6597;52.218;9.882;2022-09-30T15:26:45;4.07;;;2.15;;
13061;SDS011;6597;52.218;9.882;2022-09-30T15:29:13;2.53;;;1.98;;
13061;SDS011;6597;52.218;9.882;2022-09-30T15:31:42;2.05;;;1.70;;
13061;SDS011;6597;52.218;9.882;2022-09-30T15:34:14;3.35;;;1.95;;
13061;SDS011;6597;52.218;9.882;2022-09-30T15:36:42;2.55;;;1.98;;
13061;SDS011;6597;52.218;9.882;2022-09-30T15:39:19;2.42;;;1.90;;
13061;SDS011;6597;52.218;9.882;2022-09-30T15:41:48;4.00;;;2.05;;
13061;SDS011;6597;52.218;9.882;2022-09-30T15:44:16;3.40;;;1.73;;
13061;SDS011;6597;52.218;9.882;2022-09-30T15:47:01;2.85;;;1.50;;
13061;SDS011;6597;52.218;9.882;2022-09-30T15:49:31;5.15;;;2.10;;
13061;SDS011;6597;52.218;9.882;2022-09-30T15:54:46;5.47;;;2.25;;
13061;SDS011;6597;52.218;9.882;2022-09-30T16:00:06;3.17;;;2.10;;